sensor_id;sensor_type;location;lat;lon;timestamp;temperature;humidity
20432;DHT22;10375;49.136;10.366;2023-09-30T00:01:47;16.50;99.90
20432;DHT22;10375;49.136;10.366;2023-09-30T00:04:14;16.50;99.90
20432;DHT22;10375;49.136;10.366;2023-09-30T00:06:42;16.60;99.90
20432;DHT22;10375;49.136;10.366;2023-09-30T00:09:09;16.60;99.90
20432;DHT22;10375;49.136;10.366;2023-09-30T00:11:37;16.60;99.90
20432;DHT22;10375;49.136;10.366;2023-09-30T00:14:04;16.60;99.90
20432;DHT22;10375;49.136;10.366;2023-09-30T00:16:31;16.60;99.90
20432;DHT22;10375;49.136;10.366;2023-09-30T00:18:58;16.50;99.90
20432;DHT22;10375;49.136;10.366;2023-09-30T00:21:26;16.40;99.90
20432;DHT22;10375;49.136;10.366;2023-09-30T00:23:53;16.40;99.90
20432;DHT22;10375;49.136;10.366;2023-09-30T00:26:20;16.40;99.90
20432;DHT22;10375;49.136;10.366;2023-09-30T00:28:48;16.40;99.90
20432;DHT22;10375;49.136;10.366;2023-09-30T00:31:16;16.40;99.90
20432;DHT22;10375;49.136;10.366;2023-09-30T00:33:43;16.40;99.90
20432;DHT22;10375;49.136;10.366;2023-09-30T00:36:11;16.40;99.90
20432;DHT22;10375;49.136;10.366;2023-09-30T00:38:39;16.50;99.90
20432;DHT22;10375;49.136;10.366;2023-09-30T00:41:09;16.50;99.90
20432;DHT22;10375;49.136;10.366;2023-09-30T00:43:36;16.50;99.90
20432;DHT22;10375;49.136;10.366;2023-09-30T00:48:37;16.50;99.90
20432;DHT22;10375;49.136;10.366;2023-09-30T00:51:05;16.50;99.90
20432;DHT22;10375;49.136;10.366;2023-09-30T00:53:33;16.50;99.90
20432;DHT22;10375;49.136;10.366;2023-09-30T00:56:00;16.60;99.90
20432;DHT22;10375;49.136;10.366;2023-09-30T00:58:27;16.60;99.90
20432;DHT22;10375;49.136;10.366;2023-09-30T01:00:56;16.60;99.90
20432;DHT22;10375;49.136;10.366;2023-09-30T01:03:24;16.70;99.90
20432;DHT22;10375;49.136;10.366;2023-09-30T01:05:53;16.70;99.90
20432;DHT22;10375;49.136;10.366;2023-09-30T01:08:20;16.60;99.90
20432;DHT22;10375;49.136;10.366;2023-09-30T01:10:48;16.70;99.90
20432;DHT22;10375;49.136;10.366;2023-09-30T01:13:15;16.70;99.90
20432;DHT22;10375;49.136;10.366;2023-09-30T01:15:42;16.70;99.90
20432;DHT22;10375;49.136;10.366;2023-09-30T01:18:09;16.70;99.90
20432;DHT22;10375;49.136;10.366;2023-09-30T01:20:37;16.70;99.90
20432;DHT22;10375;49.136;10.366;2023-09-30T01:23:04;16.70;99.90
20432;DHT22;10375;49.136;10.366;2023-09-30T01:25:31;16.70;99.90
20432;DHT22;10375;49.136;10.366;2023-09-30T01:28:00;16.70;99.90
20432;DHT22;10375;49.136;10.366;2023-09-30T01:30:33;16.70;99.90
20432;DHT22;10375;49.136;10.366;2023-09-30T01:33:00;16.70;99.90
20432;DHT22;10375;49.136;10.366;2023-09-30T01:35:28;16.70;99.90
20432;DHT22;10375;49.136;10.366;2023-09-30T01:37:55;16.70;99.90
20432;DHT22;10375;49.136;10.366;2023-09-30T01:40:22;16.80;99.90
20432;DHT22;10375;49.136;10.366;2023-09-30T01:42:49;16.80;99.90
20432;DHT22;10375;49.136;10.366;2023-09-30T01:45:16;16.70;99.90
20432;DHT22;10375;49.136;10.366;2023-09-30T01:47:44;16.80;99.90
20432;DHT22;10375;49.136;10.366;2023-09-30T01:50:11;16.80;99.90
20432;DHT22;10375;49.136;10.366;2023-09-30T01:52:38;16.80;99.90
20432;DHT22;10375;49.136;10.366;2023-09-30T01:55:05;16.80;99.90
20432;DHT22;10375;49.136;10.366;2023-09-30T01:57:33;16.80;99.90
20432;DHT22;10375;49.136;10.366;2023-09-30T02:00:00;16.80;99.90
20432;DHT22;10375;49.136;10.366;2023-09-30T02:02:27;16.80;99.90
20432;DHT22;10375;49.136;10.366;2023-09-30T02:04:55;16.80;99.90
20432;DHT22;10375;49.136;10.366;2023-09-30T02:07:22;16.70;99.90
20432;DHT22;10375;49.136;10.366;2023-09-30T02:09:49;16.70;99.90
20432;DHT22;10375;49.136;10.366;2023-09-30T02:12:16;16.80;99.90
20432;DHT22;10375;49.136;10.366;2023-09-30T02:14:43;16.70;99.90
20432;DHT22;10375;49.136;10.366;2023-09-30T02:17:11;16.80;99.90
20432;DHT22;10375;49.136;10.366;2023-09-30T02:19:38;16.80;99.90
20432;DHT22;10375;49.136;10.366;2023-09-30T02:22:06;16.80;99.90
20432;DHT22;10375;49.136;10.366;2023-09-30T02:24:33;16.80;99.90
20432;DHT22;10375;49.136;10.366;2023-09-30T02:27:00;16.80;99.90
20432;DHT22;10375;49.136;10.366;2023-09-30T02:29:27;16.80;99.90
20432;DHT22;10375;49.136;10.366;2023-09-30T02:31:54;16.70;99.90
20432;DHT22;10375;49.136;10.366;2023-09-30T02:34:22;16.70;99.90
20432;DHT22;10375;49.136;10.366;2023-09-30T02:36:49;16.50;99.90
20432;DHT22;10375;49.136;10.366;2023-09-30T02:39:17;16.30;99.90
20432;DHT22;10375;49.136;10.366;2023-09-30T02:41:44;16.20;99.90
20432;DHT22;10375;49.136;10.366;2023-09-30T02:44:11;16.10;99.90
20432;DHT22;10375;49.136;10.366;2023-09-30T02:46:39;16.10;99.90
20432;DHT22;10375;49.136;10.366;2023-09-30T02:49:06;16.00;99.90
20432;DHT22;10375;49.136;10.366;2023-09-30T02:51:34;16.00;99.90
20432;DHT22;10375;49.136;10.366;2023-09-30T02:54:02;16.00;99.90
20432;DHT22;10375;49.136;10.366;2023-09-30T02:56:30;15.90;99.90
20432;DHT22;10375;49.136;10.366;2023-09-30T02:58:57;15.80;99.90
20432;DHT22;10375;49.136;10.366;2023-09-30T03:01:26;15.80;99.90
20432;DHT22;10375;49.136;10.366;2023-09-30T03:03:55;15.80;99.90
20432;DHT22;10375;49.136;10.366;2023-09-30T03:06:22;15.80;99.90
20432;DHT22;10375;49.136;10.366;2023-09-30T03:08:49;15.70;99.90
20432;DHT22;10375;49.136;10.366;2023-09-30T03:11:18;15.70;99.90
20432;DHT22;10375;49.136;10.366;2023-09-30T03:13:50;15.70;99.90
20432;DHT22;10375;49.136;10.366;2023-09-30T03:16:17;15.60;99.90
20432;DHT22;10375;49.136;10.366;2023-09-30T03:18:44;15.60;99.90
20432;DHT22;10375;49.136;10.366;2023-09-30T03:21:15;15.60;99.90
20432;DHT22;10375;49.136;10.366;2023-09-30T03:23:43;15.60;99.90
20432;DHT22;10375;49.136;10.366;2023-09-30T03:26:10;15.60;99.90
20432;DHT22;10375;49.136;10.366;2023-09-30T03:28:38;15.60;99.90
20432;DHT22;10375;49.136;10.366;2023-09-30T03:31:05;15.60;99.90
20432;DHT22;10375;49.136;10.366;2023-09-30T03:33:34;15.60;99.90
20432;DHT22;10375;49.136;10.366;2023-09-30T03:36:01;15.60;99.90
20432;DHT22;10375;49.136;10.366;2023-09-30T03:38:30;15.60;99.90
20432;DHT22;10375;49.136;10.366;2023-09-30T03:41:00;15.60;99.90
20432;DHT22;10375;49.136;10.366;2023-09-30T03:43:27;15.60;99.90
20432;DHT22;10375;49.136;10.366;2023-09-30T03:45:54;15.60;99.90
20432;DHT22;10375;49.136;10.366;2023-09-30T03:48:22;15.50;99.90
20432;DHT22;10375;49.136;10.366;2023-09-30T03:50:49;15.50;99.90
20432;DHT22;10375;49.136;10.366;2023-09-30T03:53:19;15.50;99.90
20432;DHT22;10375;49.136;10.366;2023-09-30T03:55:46;15.50;99.90
20432;DHT22;10375;49.136;10.366;2023-09-30T03:58:13;15.50;99.90
20432;DHT22;10375;49.136;10.366;2023-09-30T04:00:42;15.40;99.90
20432;DHT22;10375;49.136;10.366;2023-09-30T04:03:09;15.40;99.90
20432;DHT22;10375;49.136;10.366;2023-09-30T04:05:36;15.40;99.90
20432;DHT22;10375;49.136;10.366;2023-09-30T04:08:04;15.40;99.90
20432;DHT22;10375;49.136;10.366;2023-09-30T04:10:32;15.40;99.90
20432;DHT22;10375;49.136;10.366;2023-09-30T04:12:59;15.40;99.90
20432;DHT22;10375;49.136;10.366;2023-09-30T04:15:26;15.40;99.90
20432;DHT22;10375;49.136;10.366;2023-09-30T04:17:53;15.50;99.90
20432;DHT22;10375;49.136;10.366;2023-09-30T04:20:21;15.40;99.90
20432;DHT22;10375;49.136;10.366;2023-09-30T04:22:50;15.50;99.90
20432;DHT22;10375;49.136;10.366;2023-09-30T04:25:18;15.40;99.90
20432;DHT22;10375;49.136;10.366;2023-09-30T04:27:46;15.40;99.90
20432;DHT22;10375;49.136;10.366;2023-09-30T04:30:16;15.50;99.90
20432;DHT22;10375;49.136;10.366;2023-09-30T04:32:44;15.40;99.90
20432;DHT22;10375;49.136;10.366;2023-09-30T04:35:12;15.40;99.90
20432;DHT22;10375;49.136;10.366;2023-09-30T04:37:39;15.40;99.90
20432;DHT22;10375;49.136;10.366;2023-09-30T04:40:08;15.40;99.90
20432;DHT22;10375;49.136;10.366;2023-09-30T04:42:47;15.40;99.90
20432;DHT22;10375;49.136;10.366;2023-09-30T04:45:15;15.40;99.90
20432;DHT22;10375;49.136;10.366;2023-09-30T04:47:52;15.40;99.90
20432;DHT22;10375;49.136;10.366;2023-09-30T04:50:19;15.40;99.90
20432;DHT22;10375;49.136;10.366;2023-09-30T04:52:50;15.40;99.90
20432;DHT22;10375;49.136;10.366;2023-09-30T04:55:18;15.40;99.90
20432;DHT22;10375;49.136;10.366;2023-09-30T04:57:47;15.40;99.90
20432;DHT22;10375;49.136;10.366;2023-09-30T05:00:16;15.40;99.90
20432;DHT22;10375;49.136;10.366;2023-09-30T05:02:45;15.50;99.90
20432;DHT22;10375;49.136;10.366;2023-09-30T05:05:13;15.50;99.90
20432;DHT22;10375;49.136;10.366;2023-09-30T05:07:42;15.50;99.90
20432;DHT22;10375;49.136;10.366;2023-09-30T05:10:10;15.50;99.90
20432;DHT22;10375;49.136;10.366;2023-09-30T05:12:41;15.50;99.90
20432;DHT22;10375;49.136;10.366;2023-09-30T05:15:14;15.50;99.90
20432;DHT22;10375;49.136;10.366;2023-09-30T05:17:47;15.40;99.90
20432;DHT22;10375;49.136;10.366;2023-09-30T05:20:16;15.40;99.90
20432;DHT22;10375;49.136;10.366;2023-09-30T05:22:46;15.30;99.90
20432;DHT22;10375;49.136;10.366;2023-09-30T05:25:16;15.30;99.90
20432;DHT22;10375;49.136;10.366;2023-09-30T05:27:45;15.30;99.90
20432;DHT22;10375;49.136;10.366;2023-09-30T05:30:15;15.30;99.90
20432;DHT22;10375;49.136;10.366;2023-09-30T05:32:43;15.30;99.90
20432;DHT22;10375;49.136;10.366;2023-09-30T05:35:13;15.30;99.90
20432;DHT22;10375;49.136;10.366;2023-09-30T05:37:44;15.20;99.90
20432;DHT22;10375;49.136;10.366;2023-09-30T05:40:12;15.20;99.90
20432;DHT22;10375;49.136;10.366;2023-09-30T05:42:58;15.20;99.90
20432;DHT22;10375;49.136;10.366;2023-09-30T05:45:27;15.20;99.90
20432;DHT22;10375;49.136;10.366;2023-09-30T05:47:55;15.10;99.90
20432;DHT22;10375;49.136;10.366;2023-09-30T05:50:24;15.10;99.90
20432;DHT22;10375;49.136;10.366;2023-09-30T05:52:55;15.00;99.90
20432;DHT22;10375;49.136;10.366;2023-09-30T05:55:23;15.00;99.90
20432;DHT22;10375;49.136;10.366;2023-09-30T05:57:53;15.00;99.90
20432;DHT22;10375;49.136;10.366;2023-09-30T06:00:22;15.00;99.90
20432;DHT22;10375;49.136;10.366;2023-09-30T06:03:03;15.00;99.90
20432;DHT22;10375;49.136;10.366;2023-09-30T06:05:33;15.10;99.90
20432;DHT22;10375;49.136;10.366;2023-09-30T06:08:03;15.20;99.90
20432;DHT22;10375;49.136;10.366;2023-09-30T06:10:30;15.30;99.90
20432;DHT22;10375;49.136;10.366;2023-09-30T06:12:58;15.40;99.90
20432;DHT22;10375;49.136;10.366;2023-09-30T06:15:27;15.50;99.90
20432;DHT22;10375;49.136;10.366;2023-09-30T06:17:55;15.80;99.90
20432;DHT22;10375;49.136;10.366;2023-09-30T06:20:23;15.90;99.90
20432;DHT22;10375;49.136;10.366;2023-09-30T06:22:54;15.90;99.90
20432;DHT22;10375;49.136;10.366;2023-09-30T06:25:22;16.00;99.90
20432;DHT22;10375;49.136;10.366;2023-09-30T06:27:54;16.00;99.90
20432;DHT22;10375;49.136;10.366;2023-09-30T06:30:22;16.00;99.90
20432;DHT22;10375;49.136;10.366;2023-09-30T06:32:58;16.00;99.90
20432;DHT22;10375;49.136;10.366;2023-09-30T06:35:28;16.10;99.90
20432;DHT22;10375;49.136;10.366;2023-09-30T06:37:57;16.20;99.90
20432;DHT22;10375;49.136;10.366;2023-09-30T06:40:24;16.40;99.90
20432;DHT22;10375;49.136;10.366;2023-09-30T06:42:51;16.70;99.90
20432;DHT22;10375;49.136;10.366;2023-09-30T06:45:19;16.90;99.90
20432;DHT22;10375;49.136;10.366;2023-09-30T06:47:49;17.10;99.90
20432;DHT22;10375;49.136;10.366;2023-09-30T06:50:16;17.10;99.90
20432;DHT22;10375;49.136;10.366;2023-09-30T06:52:44;17.10;99.90
20432;DHT22;10375;49.136;10.366;2023-09-30T06:55:17;17.10;99.90
20432;DHT22;10375;49.136;10.366;2023-09-30T06:57:44;17.20;99.90
20432;DHT22;10375;49.136;10.366;2023-09-30T07:00:13;17.40;99.90
20432;DHT22;10375;49.136;10.366;2023-09-30T07:02:41;17.60;99.90
20432;DHT22;10375;49.136;10.366;2023-09-30T07:05:10;18.20;99.90
20432;DHT22;10375;49.136;10.366;2023-09-30T07:07:39;19.20;99.90
20432;DHT22;10375;49.136;10.366;2023-09-30T07:10:10;20.20;99.90
20432;DHT22;10375;49.136;10.366;2023-09-30T07:12:41;20.70;99.90
20432;DHT22;10375;49.136;10.366;2023-09-30T07:15:09;20.60;99.90
20432;DHT22;10375;49.136;10.366;2023-09-30T07:17:37;20.50;99.90
20432;DHT22;10375;49.136;10.366;2023-09-30T07:20:04;20.80;99.90
20432;DHT22;10375;49.136;10.366;2023-09-30T07:22:33;21.60;99.90
20432;DHT22;10375;49.136;10.366;2023-09-30T07:25:18;22.40;99.90
20432;DHT22;10375;49.136;10.366;2023-09-30T07:27:46;23.30;99.90
20432;DHT22;10375;49.136;10.366;2023-09-30T07:30:13;23.80;99.90
20432;DHT22;10375;49.136;10.366;2023-09-30T07:32:43;24.30;99.90
20432;DHT22;10375;49.136;10.366;2023-09-30T07:35:14;24.30;99.90
20432;DHT22;10375;49.136;10.366;2023-09-30T07:37:43;24.10;99.90
20432;DHT22;10375;49.136;10.366;2023-09-30T07:40:12;23.70;99.90
20432;DHT22;10375;49.136;10.366;2023-09-30T07:42:39;23.00;99.90
20432;DHT22;10375;49.136;10.366;2023-09-30T07:45:06;22.40;99.90
20432;DHT22;10375;49.136;10.366;2023-09-30T07:47:34;22.10;99.90
20432;DHT22;10375;49.136;10.366;2023-09-30T07:50:02;22.30;99.90
20432;DHT22;10375;49.136;10.366;2023-09-30T07:52:33;22.00;99.90
20432;DHT22;10375;49.136;10.366;2023-09-30T07:55:00;22.00;99.90
20432;DHT22;10375;49.136;10.366;2023-09-30T07:57:27;21.80;99.90
20432;DHT22;10375;49.136;10.366;2023-09-30T07:59:55;22.20;99.90
20432;DHT22;10375;49.136;10.366;2023-09-30T08:02:22;22.50;99.90
20432;DHT22;10375;49.136;10.366;2023-09-30T08:04:51;22.70;99.90
20432;DHT22;10375;49.136;10.366;2023-09-30T08:07:19;22.70;99.90
20432;DHT22;10375;49.136;10.366;2023-09-30T08:09:47;22.70;99.90
20432;DHT22;10375;49.136;10.366;2023-09-30T08:12:14;22.90;99.90
20432;DHT22;10375;49.136;10.366;2023-09-30T08:14:42;23.10;99.90
20432;DHT22;10375;49.136;10.366;2023-09-30T08:17:11;23.40;99.90
20432;DHT22;10375;49.136;10.366;2023-09-30T08:19:39;23.60;99.50
20432;DHT22;10375;49.136;10.366;2023-09-30T08:22:06;23.70;99.40
20432;DHT22;10375;49.136;10.366;2023-09-30T08:24:33;23.70;99.60
20432;DHT22;10375;49.136;10.366;2023-09-30T08:27:01;23.60;99.00
20432;DHT22;10375;49.136;10.366;2023-09-30T08:29:28;23.20;99.20
20432;DHT22;10375;49.136;10.366;2023-09-30T08:31:55;22.90;99.60
20432;DHT22;10375;49.136;10.366;2023-09-30T08:34:23;22.60;99.90
20432;DHT22;10375;49.136;10.366;2023-09-30T08:36:50;22.20;99.90
20432;DHT22;10375;49.136;10.366;2023-09-30T08:39:18;21.90;99.90
20432;DHT22;10375;49.136;10.366;2023-09-30T08:41:45;22.00;99.90
20432;DHT22;10375;49.136;10.366;2023-09-30T08:44:12;22.10;99.90
20432;DHT22;10375;49.136;10.366;2023-09-30T08:46:40;22.00;99.90
20432;DHT22;10375;49.136;10.366;2023-09-30T08:49:09;21.90;99.90
20432;DHT22;10375;49.136;10.366;2023-09-30T08:51:38;21.80;99.90
20432;DHT22;10375;49.136;10.366;2023-09-30T08:54:06;22.00;99.90
20432;DHT22;10375;49.136;10.366;2023-09-30T08:56:33;22.20;99.90
20432;DHT22;10375;49.136;10.366;2023-09-30T08:59:02;22.70;99.60
20432;DHT22;10375;49.136;10.366;2023-09-30T09:01:30;22.90;99.20
20432;DHT22;10375;49.136;10.366;2023-09-30T09:03:58;22.90;98.20
20432;DHT22;10375;49.136;10.366;2023-09-30T09:06:26;22.50;98.70
20432;DHT22;10375;49.136;10.366;2023-09-30T09:08:54;22.20;99.70
20432;DHT22;10375;49.136;10.366;2023-09-30T09:11:23;22.30;99.80
20432;DHT22;10375;49.136;10.366;2023-09-30T09:13:52;22.40;99.80
20432;DHT22;10375;49.136;10.366;2023-09-30T09:16:24;22.70;99.30
20432;DHT22;10375;49.136;10.366;2023-09-30T09:18:51;22.90;98.90
20432;DHT22;10375;49.136;10.366;2023-09-30T09:21:20;23.00;98.00
20432;DHT22;10375;49.136;10.366;2023-09-30T09:23:51;22.80;98.10
20432;DHT22;10375;49.136;10.366;2023-09-30T09:26:26;22.50;98.70
20432;DHT22;10375;49.136;10.366;2023-09-30T09:29:01;22.10;99.40
20432;DHT22;10375;49.136;10.366;2023-09-30T09:31:36;21.70;99.70
20432;DHT22;10375;49.136;10.366;2023-09-30T09:34:13;21.40;99.90
20432;DHT22;10375;49.136;10.366;2023-09-30T09:36:44;21.50;99.90
20432;DHT22;10375;49.136;10.366;2023-09-30T09:39:12;22.00;99.70
20432;DHT22;10375;49.136;10.366;2023-09-30T09:41:52;22.50;99.00
20432;DHT22;10375;49.136;10.366;2023-09-30T09:44:21;22.90;98.30
20432;DHT22;10375;49.136;10.366;2023-09-30T09:46:52;23.30;97.70
20432;DHT22;10375;49.136;10.366;2023-09-30T09:49:20;23.80;96.10
20432;DHT22;10375;49.136;10.366;2023-09-30T09:51:48;24.00;95.10
20432;DHT22;10375;49.136;10.366;2023-09-30T09:54:16;23.90;95.30
20432;DHT22;10375;49.136;10.366;2023-09-30T09:56:48;23.70;94.50
20432;DHT22;10375;49.136;10.366;2023-09-30T09:59:16;23.30;95.70
20432;DHT22;10375;49.136;10.366;2023-09-30T10:01:43;23.10;95.50
20432;DHT22;10375;49.136;10.366;2023-09-30T10:04:12;22.80;95.60
20432;DHT22;10375;49.136;10.366;2023-09-30T10:06:45;22.70;96.50
20432;DHT22;10375;49.136;10.366;2023-09-30T10:09:15;22.80;96.30
20432;DHT22;10375;49.136;10.366;2023-09-30T10:11:45;22.70;96.70
20432;DHT22;10375;49.136;10.366;2023-09-30T10:14:33;22.90;97.30
20432;DHT22;10375;49.136;10.366;2023-09-30T10:17:00;23.40;95.80
20432;DHT22;10375;49.136;10.366;2023-09-30T10:19:28;23.80;95.50
20432;DHT22;10375;49.136;10.366;2023-09-30T10:24:48;24.60;93.70
20432;DHT22;10375;49.136;10.366;2023-09-30T10:29:59;25.10;92.40
20432;DHT22;10375;49.136;10.366;2023-09-30T10:35:41;24.60;93.00
20432;DHT22;10375;49.136;10.366;2023-09-30T10:40:55;24.90;92.10
20432;DHT22;10375;49.136;10.366;2023-09-30T10:43:48;25.00;92.10
20432;DHT22;10375;49.136;10.366;2023-09-30T10:48:56;24.30;92.20
20432;DHT22;10375;49.136;10.366;2023-09-30T10:51:24;24.00;92.40
20432;DHT22;10375;49.136;10.366;2023-09-30T10:53:53;23.70;92.20
20432;DHT22;10375;49.136;10.366;2023-09-30T10:56:33;23.40;92.60
20432;DHT22;10375;49.136;10.366;2023-09-30T10:59:00;23.60;92.70
20432;DHT22;10375;49.136;10.366;2023-09-30T11:01:33;24.10;92.10
20432;DHT22;10375;49.136;10.366;2023-09-30T11:04:03;24.50;90.70
20432;DHT22;10375;49.136;10.366;2023-09-30T11:06:32;24.60;89.70
20432;DHT22;10375;49.136;10.366;2023-09-30T11:09:01;24.50;88.60
20432;DHT22;10375;49.136;10.366;2023-09-30T11:11:36;24.50;90.70
20432;DHT22;10375;49.136;10.366;2023-09-30T11:16:54;25.30;88.70
20432;DHT22;10375;49.136;10.366;2023-09-30T11:19:22;25.60;87.70
20432;DHT22;10375;49.136;10.366;2023-09-30T11:21:52;25.80;88.20
20432;DHT22;10375;49.136;10.366;2023-09-30T11:24:19;26.10;86.60
20432;DHT22;10375;49.136;10.366;2023-09-30T11:26:47;26.30;86.20
20432;DHT22;10375;49.136;10.366;2023-09-30T11:29:16;26.60;85.30
20432;DHT22;10375;49.136;10.366;2023-09-30T11:31:45;26.90;83.70
20432;DHT22;10375;49.136;10.366;2023-09-30T11:34:16;27.10;82.50
20432;DHT22;10375;49.136;10.366;2023-09-30T11:36:51;27.30;82.40
20432;DHT22;10375;49.136;10.366;2023-09-30T11:39:27;27.40;79.10
20432;DHT22;10375;49.136;10.366;2023-09-30T11:41:56;27.60;79.80
20432;DHT22;10375;49.136;10.366;2023-09-30T11:44:25;27.70;78.90
20432;DHT22;10375;49.136;10.366;2023-09-30T11:46:58;27.70;77.30
20432;DHT22;10375;49.136;10.366;2023-09-30T11:49:33;27.70;75.20
20432;DHT22;10375;49.136;10.366;2023-09-30T11:52:08;27.30;76.00
20432;DHT22;10375;49.136;10.366;2023-09-30T11:57:08;27.10;76.00
20432;DHT22;10375;49.136;10.366;2023-09-30T11:59:37;27.10;76.80
20432;DHT22;10375;49.136;10.366;2023-09-30T12:02:09;27.20;75.90
20432;DHT22;10375;49.136;10.366;2023-09-30T12:04:42;27.40;76.90
20432;DHT22;10375;49.136;10.366;2023-09-30T12:07:10;27.40;75.80
20432;DHT22;10375;49.136;10.366;2023-09-30T12:09:38;27.40;75.40
20432;DHT22;10375;49.136;10.366;2023-09-30T12:12:07;27.30;74.20
20432;DHT22;10375;49.136;10.366;2023-09-30T12:14:39;27.30;74.70
20432;DHT22;10375;49.136;10.366;2023-09-30T12:17:06;27.20;75.40
20432;DHT22;10375;49.136;10.366;2023-09-30T12:19:40;27.10;74.60
20432;DHT22;10375;49.136;10.366;2023-09-30T12:22:09;27.00;75.10
20432;DHT22;10375;49.136;10.366;2023-09-30T12:24:37;26.80;72.90
20432;DHT22;10375;49.136;10.366;2023-09-30T12:27:05;26.60;74.90
20432;DHT22;10375;49.136;10.366;2023-09-30T12:29:32;26.20;73.40
20432;DHT22;10375;49.136;10.366;2023-09-30T12:32:00;25.50;74.50
20432;DHT22;10375;49.136;10.366;2023-09-30T12:34:28;24.80;75.60
20432;DHT22;10375;49.136;10.366;2023-09-30T12:36:55;24.70;76.50
20432;DHT22;10375;49.136;10.366;2023-09-30T12:39:24;25.00;76.70
20432;DHT22;10375;49.136;10.366;2023-09-30T12:41:54;25.60;76.70
20432;DHT22;10375;49.136;10.366;2023-09-30T12:44:22;26.20;75.20
20432;DHT22;10375;49.136;10.366;2023-09-30T12:46:50;26.60;74.70
20432;DHT22;10375;49.136;10.366;2023-09-30T12:49:18;26.70;74.00
20432;DHT22;10375;49.136;10.366;2023-09-30T12:51:47;26.80;74.60
20432;DHT22;10375;49.136;10.366;2023-09-30T12:54:14;27.00;74.10
20432;DHT22;10375;49.136;10.366;2023-09-30T12:56:45;27.20;72.50
20432;DHT22;10375;49.136;10.366;2023-09-30T12:59:13;27.30;71.10
20432;DHT22;10375;49.136;10.366;2023-09-30T13:01:40;27.50;70.80
20432;DHT22;10375;49.136;10.366;2023-09-30T13:04:08;27.60;69.90
20432;DHT22;10375;49.136;10.366;2023-09-30T13:06:36;27.60;70.00
20432;DHT22;10375;49.136;10.366;2023-09-30T13:09:03;27.50;71.30
20432;DHT22;10375;49.136;10.366;2023-09-30T13:11:36;27.10;69.90
20432;DHT22;10375;49.136;10.366;2023-09-30T13:14:04;26.60;71.00
20432;DHT22;10375;49.136;10.366;2023-09-30T13:16:31;26.10;71.80
20432;DHT22;10375;49.136;10.366;2023-09-30T13:18:59;26.00;73.00
20432;DHT22;10375;49.136;10.366;2023-09-30T13:21:27;26.20;72.60
20432;DHT22;10375;49.136;10.366;2023-09-30T13:23:54;26.30;72.60
20432;DHT22;10375;49.136;10.366;2023-09-30T13:26:21;26.30;73.00
20432;DHT22;10375;49.136;10.366;2023-09-30T13:28:48;26.50;73.90
20432;DHT22;10375;49.136;10.366;2023-09-30T13:31:15;26.70;74.20
20432;DHT22;10375;49.136;10.366;2023-09-30T13:33:44;26.90;72.80
20432;DHT22;10375;49.136;10.366;2023-09-30T13:36:11;26.50;73.50
20432;DHT22;10375;49.136;10.366;2023-09-30T13:38:38;26.10;74.80
20432;DHT22;10375;49.136;10.366;2023-09-30T13:41:05;26.00;73.90
20432;DHT22;10375;49.136;10.366;2023-09-30T13:43:33;25.80;73.50
20432;DHT22;10375;49.136;10.366;2023-09-30T13:46:04;25.40;74.80
20432;DHT22;10375;49.136;10.366;2023-09-30T13:48:34;25.20;77.30
20432;DHT22;10375;49.136;10.366;2023-09-30T13:51:05;25.00;77.70
20432;DHT22;10375;49.136;10.366;2023-09-30T13:53:33;25.00;77.80
20432;DHT22;10375;49.136;10.366;2023-09-30T13:56:00;25.10;78.50
20432;DHT22;10375;49.136;10.366;2023-09-30T13:58:27;25.20;78.10
20432;DHT22;10375;49.136;10.366;2023-09-30T14:00:54;25.10;75.20
20432;DHT22;10375;49.136;10.366;2023-09-30T14:03:23;24.90;77.10
20432;DHT22;10375;49.136;10.366;2023-09-30T14:05:51;24.70;77.10
20432;DHT22;10375;49.136;10.366;2023-09-30T14:08:20;24.50;79.50
20432;DHT22;10375;49.136;10.366;2023-09-30T14:10:47;24.40;81.20
20432;DHT22;10375;49.136;10.366;2023-09-30T14:13:16;24.30;78.80
20432;DHT22;10375;49.136;10.366;2023-09-30T14:15:44;24.30;79.80
20432;DHT22;10375;49.136;10.366;2023-09-30T14:18:11;24.30;79.80
20432;DHT22;10375;49.136;10.366;2023-09-30T14:20:38;24.30;80.10
20432;DHT22;10375;49.136;10.366;2023-09-30T14:23:05;24.40;79.20
20432;DHT22;10375;49.136;10.366;2023-09-30T14:25:32;24.40;79.00
20432;DHT22;10375;49.136;10.366;2023-09-30T14:28:00;24.40;78.10
20432;DHT22;10375;49.136;10.366;2023-09-30T14:30:27;24.30;78.10
20432;DHT22;10375;49.136;10.366;2023-09-30T14:32:55;24.10;78.70
20432;DHT22;10375;49.136;10.366;2023-09-30T14:35:22;23.90;79.30
20432;DHT22;10375;49.136;10.366;2023-09-30T14:37:49;23.90;78.80
20432;DHT22;10375;49.136;10.366;2023-09-30T14:40:16;23.90;80.20
20432;DHT22;10375;49.136;10.366;2023-09-30T14:42:43;23.90;80.30
20432;DHT22;10375;49.136;10.366;2023-09-30T14:45:10;23.70;80.20
20432;DHT22;10375;49.136;10.366;2023-09-30T14:47:38;23.60;81.30
20432;DHT22;10375;49.136;10.366;2023-09-30T14:50:09;23.60;81.50
20432;DHT22;10375;49.136;10.366;2023-09-30T14:52:36;23.50;81.40
20432;DHT22;10375;49.136;10.366;2023-09-30T14:55:03;23.40;81.30
20432;DHT22;10375;49.136;10.366;2023-09-30T14:57:31;23.50;79.10
20432;DHT22;10375;49.136;10.366;2023-09-30T14:59:58;23.40;78.50
20432;DHT22;10375;49.136;10.366;2023-09-30T15:02:28;23.40;80.40
20432;DHT22;10375;49.136;10.366;2023-09-30T15:04:56;23.40;80.70
20432;DHT22;10375;49.136;10.366;2023-09-30T15:07:23;23.30;80.50
20432;DHT22;10375;49.136;10.366;2023-09-30T15:09:50;23.20;80.80
20432;DHT22;10375;49.136;10.366;2023-09-30T15:12:19;23.10;81.10
20432;DHT22;10375;49.136;10.366;2023-09-30T15:14:46;23.00;81.70
20432;DHT22;10375;49.136;10.366;2023-09-30T15:17:14;22.80;80.60
20432;DHT22;10375;49.136;10.366;2023-09-30T15:19:41;22.60;80.80
20432;DHT22;10375;49.136;10.366;2023-09-30T15:22:08;22.50;81.40
20432;DHT22;10375;49.136;10.366;2023-09-30T15:24:37;22.50;82.10
20432;DHT22;10375;49.136;10.366;2023-09-30T15:27:04;22.30;83.00
20432;DHT22;10375;49.136;10.366;2023-09-30T15:29:32;22.20;83.20
20432;DHT22;10375;49.136;10.366;2023-09-30T15:31:59;22.20;83.50
20432;DHT22;10375;49.136;10.366;2023-09-30T15:34:29;22.00;84.30
20432;DHT22;10375;49.136;10.366;2023-09-30T15:36:56;22.00;84.80
20432;DHT22;10375;49.136;10.366;2023-09-30T15:39:24;21.90;86.10
20432;DHT22;10375;49.136;10.366;2023-09-30T15:41:52;21.70;85.00
20432;DHT22;10375;49.136;10.366;2023-09-30T15:44:19;21.60;85.10
20432;DHT22;10375;49.136;10.366;2023-09-30T15:46:46;21.40;85.50